SCCI 261700Z VRB02KT 9999 FEW033 BKN070 03/00 Q1003 NOSIG